createdAt,value
2023-01-03T00:01:32.010Z,5.09
2023-01-03T00:03:35.952Z,5.09
2023-01-03T00:05:40.420Z,5.09
2023-01-03T00:07:44.221Z,5.05
2023-01-03T00:09:48.426Z,5.03
2023-01-03T00:12:11.817Z,5.01
2023-01-03T00:14:19.030Z,5.04
2023-01-03T00:16:23.363Z,5.05
2023-01-03T00:18:30.529Z,5.13
2023-01-03T00:20:36.154Z,5.24
2023-01-03T00:22:40.408Z,5.32
2023-01-03T00:24:44.642Z,5.36
2023-01-03T00:26:48.697Z,5.48
2023-01-03T00:28:53.069Z,5.54
2023-01-03T00:30:57.288Z,5.61
2023-01-03T00:33:01.813Z,5.66
2023-01-03T00:35:09.129Z,5.70
2023-01-03T00:37:13.637Z,5.74
2023-01-03T00:39:18.816Z,5.84
2023-01-03T00:41:22.833Z,5.91
2023-01-03T00:43:33.427Z,5.95
2023-01-03T00:45:37.298Z,5.96
2023-01-03T00:47:41.898Z,6.01
2023-01-03T00:49:46.021Z,6.01
2023-01-03T00:51:53.995Z,6.09
2023-01-03T00:54:00.434Z,6.17
2023-01-03T00:56:06.053Z,6.24
2023-01-03T00:58:10.844Z,6.31
2023-01-03T01:00:16.122Z,6.34
2023-01-03T01:02:22.068Z,6.36
2023-01-03T01:04:27.680Z,6.39
2023-01-03T01:06:36.096Z,6.41
2023-01-03T01:08:41.475Z,6.42
2023-01-03T01:11:02.314Z,6.44
2023-01-03T01:13:06.969Z,6.45
2023-01-03T01:15:12.242Z,6.44
2023-01-03T01:17:22.368Z,6.50
2023-01-03T01:19:29.546Z,6.51
2023-01-03T01:21:34.056Z,6.54
2023-01-03T01:23:41.487Z,6.56
2023-01-03T01:25:46.192Z,6.61
2023-01-03T01:27:50.521Z,6.66
2023-01-03T01:29:55.133Z,6.68
2023-01-03T01:31:59.526Z,6.71
2023-01-03T01:34:03.909Z,6.73
2023-01-03T01:36:09.141Z,6.75
2023-01-03T01:38:13.743Z,6.75
2023-01-03T01:40:20.616Z,6.77
2023-01-03T01:42:41.935Z,6.89
2023-01-03T01:44:56.281Z,6.90
2023-01-03T01:47:00.486Z,6.92
2023-01-03T01:49:06.942Z,6.91
2023-01-03T01:51:13.200Z,6.92
2023-01-03T01:53:20.691Z,6.93
2023-01-03T01:55:29.624Z,6.94
2023-01-03T01:57:34.763Z,7.00
2023-01-03T01:59:38.630Z,7.04
2023-01-03T02:01:45.463Z,7.07
2023-01-03T02:03:56.738Z,7.09
2023-01-03T02:06:02.493Z,7.11
2023-01-03T02:08:06.805Z,7.15
2023-01-03T02:10:11.708Z,7.19
2023-01-03T02:12:41.968Z,7.18
2023-01-03T02:15:00.362Z,7.19
2023-01-03T02:17:14.732Z,7.17
2023-01-03T02:19:38.651Z,7.13
2023-01-03T02:21:57.619Z,7.16
2023-01-03T02:24:37.851Z,7.16
2023-01-03T02:26:56.265Z,7.15
2023-01-03T02:29:40.077Z,7.12
2023-01-03T02:31:57.965Z,7.13
2023-01-03T02:34:11.729Z,7.13
2023-01-03T02:36:24.187Z,7.15
2023-01-03T02:38:37.716Z,7.18
2023-01-03T02:40:46.558Z,7.17
2023-01-03T02:43:02.429Z,7.20
2023-01-03T02:45:12.830Z,7.24
2023-01-03T02:47:22.616Z,7.24
2023-01-03T02:49:34.721Z,7.23
2023-01-03T02:51:43.225Z,7.22
2023-01-03T02:53:50.620Z,7.20
2023-01-03T02:55:59.924Z,7.16
2023-01-03T02:58:07.611Z,7.13
2023-01-03T03:00:15.727Z,7.14
2023-01-03T03:02:26.025Z,7.11
2023-01-03T03:04:31.174Z,7.13
2023-01-03T03:06:45.125Z,7.15
2023-01-03T03:08:50.167Z,7.14
2023-01-03T03:11:13.609Z,7.20
2023-01-03T03:13:23.831Z,7.22
2023-01-03T03:15:34.431Z,7.23
2023-01-03T03:17:42.621Z,7.25
2023-01-03T03:20:06.830Z,7.26
2023-01-03T03:22:37.135Z,7.28
2023-01-03T03:24:51.851Z,7.32
2023-01-03T03:26:56.614Z,7.29
2023-01-03T03:29:06.410Z,7.29
2023-01-03T03:31:14.419Z,7.29
2023-01-03T03:33:23.662Z,7.32
2023-01-03T03:35:31.099Z,7.35
2023-01-03T03:37:39.490Z,7.33
2023-01-03T03:40:01.536Z,7.32
2023-01-03T03:42:37.122Z,7.33
2023-01-03T03:45:01.595Z,7.33
2023-01-03T03:47:16.525Z,7.32
2023-01-03T03:49:40.664Z,7.35
2023-01-03T03:51:48.605Z,7.35
2023-01-03T03:53:55.625Z,7.36
2023-01-03T03:56:05.240Z,7.38
2023-01-03T03:58:14.445Z,7.42
2023-01-03T04:00:23.047Z,7.47
2023-01-03T04:02:29.714Z,7.57
2023-01-03T04:04:39.476Z,7.59
2023-01-03T04:06:48.193Z,7.61
2023-01-03T04:08:51.844Z,7.62
2023-01-03T04:11:06.106Z,7.60
2023-01-03T04:13:10.011Z,7.61
2023-01-03T04:15:14.456Z,7.59
2023-01-03T04:17:18.321Z,7.60
2023-01-03T04:19:21.997Z,7.62
2023-01-03T04:21:27.018Z,7.62
2023-01-03T04:23:30.658Z,7.65
2023-01-03T04:25:34.515Z,7.69
2023-01-03T04:27:39.245Z,7.73
2023-01-03T04:29:43.393Z,7.74
2023-01-03T04:31:46.840Z,7.78
2023-01-03T04:33:50.695Z,7.82
2023-01-03T04:35:54.440Z,7.83
2023-01-03T04:37:59.840Z,7.88
2023-01-03T04:40:03.704Z,7.91
2023-01-03T04:42:27.999Z,7.96
2023-01-03T04:44:30.309Z,8.01
2023-01-03T04:46:37.033Z,8.04
2023-01-03T04:48:40.636Z,8.05
2023-01-03T04:50:50.392Z,8.06
2023-01-03T04:52:53.962Z,8.07
2023-01-03T04:54:58.732Z,8.08
2023-01-03T04:57:02.137Z,8.10
2023-01-03T04:59:06.183Z,8.10
2023-01-03T05:01:10.253Z,8.12
2023-01-03T05:03:14.040Z,8.12
2023-01-03T05:05:17.511Z,8.16
2023-01-03T05:07:20.883Z,8.14
2023-01-03T05:09:24.599Z,8.16
2023-01-03T05:11:29.564Z,8.20
2023-01-03T05:13:35.139Z,8.22
2023-01-03T05:15:39.861Z,8.26
2023-01-03T05:17:43.285Z,8.26
2023-01-03T05:20:00.390Z,8.28
2023-01-03T05:22:23.619Z,8.30
2023-01-03T05:24:44.248Z,8.33
2023-01-03T05:26:49.660Z,8.34
2023-01-03T05:28:56.259Z,8.36
2023-01-03T05:31:00.333Z,8.35
2023-01-03T05:33:03.621Z,8.34
2023-01-03T05:35:07.722Z,8.32
2023-01-03T05:37:11.077Z,8.31
2023-01-03T05:39:14.868Z,8.28
2023-01-03T05:41:39.170Z,8.27
2023-01-03T05:43:44.028Z,8.24
2023-01-03T05:45:52.126Z,8.24
2023-01-03T05:47:59.475Z,8.23
2023-01-03T05:50:02.820Z,8.24
2023-01-03T05:52:06.569Z,8.24
2023-01-03T05:54:11.187Z,8.23
2023-01-03T05:56:14.482Z,8.20
2023-01-03T05:58:17.802Z,8.19
2023-01-03T06:00:22.633Z,8.18
2023-01-03T06:02:26.051Z,8.17
2023-01-03T06:04:29.368Z,8.17
2023-01-03T06:06:32.805Z,8.14
2023-01-03T06:08:36.052Z,8.14
2023-01-03T06:10:41.267Z,8.14
2023-01-03T06:12:44.850Z,8.14
2023-01-03T06:14:48.147Z,8.13
2023-01-03T06:17:10.174Z,8.14
2023-01-03T06:19:13.727Z,8.15
2023-01-03T06:21:17.302Z,8.16
2023-01-03T06:23:20.678Z,8.18
2023-01-03T06:25:23.995Z,8.18
2023-01-03T06:27:27.394Z,8.16
2023-01-03T06:29:31.035Z,8.16
2023-01-03T06:31:35.224Z,8.12
2023-01-03T06:33:41.168Z,8.11
2023-01-03T06:35:44.716Z,8.08
2023-01-03T06:37:47.994Z,8.05
2023-01-03T06:39:51.273Z,8.05
2023-01-03T06:41:54.511Z,8.04
2023-01-03T06:43:58.024Z,8.03
2023-01-03T06:46:20.651Z,8.04
2023-01-03T06:48:41.454Z,8.02
2023-01-03T06:51:04.528Z,8.00
2023-01-03T06:53:14.116Z,7.96
2023-01-03T06:55:17.874Z,7.95
2023-01-03T06:57:25.984Z,7.93
2023-01-03T06:59:31.057Z,7.92
2023-01-03T07:01:35.117Z,7.90
2023-01-03T07:03:38.587Z,7.90
2023-01-03T07:05:42.276Z,7.92
2023-01-03T07:07:47.036Z,7.94
2023-01-03T07:09:50.457Z,7.93
2023-01-03T07:11:53.857Z,7.95
2023-01-03T07:13:58.982Z,7.96
2023-01-03T07:16:02.404Z,7.97
2023-01-03T07:18:05.836Z,7.98
2023-01-03T07:20:10.254Z,7.99
2023-01-03T07:22:13.641Z,7.98
2023-01-03T07:24:19.917Z,7.99
2023-01-03T07:26:24.849Z,8.02
2023-01-03T07:28:28.143Z,8.04
2023-01-03T07:30:31.423Z,8.05
2023-01-03T07:32:35.746Z,8.05
2023-01-03T07:34:39.833Z,8.07
2023-01-03T07:36:43.290Z,8.07
2023-01-03T07:38:48.561Z,8.10
2023-01-03T07:40:54.327Z,8.10
2023-01-03T07:43:15.635Z,8.10
2023-01-03T07:45:20.062Z,8.11
2023-01-03T07:47:25.645Z,8.10
2023-01-03T07:49:29.857Z,8.13
2023-01-03T07:51:33.736Z,8.15
2023-01-03T07:53:38.345Z,8.16
2023-01-03T07:55:41.682Z,8.16
2023-01-03T07:57:46.382Z,8.16
2023-01-03T07:59:49.691Z,8.14
2023-01-03T08:01:54.979Z,8.14
2023-01-03T08:03:59.198Z,8.14
2023-01-03T08:06:03.717Z,8.14
2023-01-03T08:08:07.899Z,8.16
2023-01-03T08:10:29.198Z,8.13
2023-01-03T08:12:50.586Z,8.13
2023-01-03T08:14:55.647Z,8.13
2023-01-03T08:16:59.043Z,8.13
2023-01-03T08:19:03.342Z,8.11
2023-01-03T08:21:08.534Z,8.11
2023-01-03T08:23:12.188Z,8.11
2023-01-03T08:25:15.520Z,8.12
2023-01-03T08:27:18.810Z,8.13
2023-01-03T08:29:22.200Z,8.14
2023-01-03T08:31:30.112Z,8.15
2023-01-03T08:33:37.607Z,8.18
2023-01-03T08:35:44.073Z,8.19
2023-01-03T08:37:48.036Z,8.20
2023-01-03T08:39:56.656Z,8.21
2023-01-03T08:42:03.311Z,8.23
2023-01-03T08:44:09.968Z,8.25
2023-01-03T08:46:15.436Z,8.28
2023-01-03T08:48:22.569Z,8.29
2023-01-03T08:50:26.502Z,8.32
2023-01-03T08:52:34.744Z,8.32
2023-01-03T08:54:39.331Z,8.35
2023-01-03T08:56:42.679Z,8.37
2023-01-03T08:58:46.445Z,8.40
2023-01-03T09:00:49.859Z,8.42
2023-01-03T09:02:53.309Z,8.46
2023-01-03T09:04:58.224Z,8.48
2023-01-03T09:07:01.837Z,8.50
2023-01-03T09:09:06.413Z,8.49
2023-01-03T09:11:11.080Z,8.49
2023-01-03T09:13:14.721Z,8.48
2023-01-03T09:15:18.557Z,8.49
2023-01-03T09:17:22.688Z,8.49
2023-01-03T09:19:26.475Z,8.49
2023-01-03T09:21:31.805Z,8.49
2023-01-03T09:23:37.961Z,8.49
2023-01-03T09:25:41.887Z,8.49
2023-01-03T09:27:49.572Z,8.51
2023-01-03T09:29:53.768Z,8.53
2023-01-03T09:31:58.356Z,8.54
2023-01-03T09:34:03.817Z,8.55
2023-01-03T09:36:08.576Z,8.56
2023-01-03T09:38:14.228Z,8.59
2023-01-03T09:40:19.742Z,8.63
2023-01-03T09:42:43.667Z,8.66
2023-01-03T09:44:48.757Z,8.69
2023-01-03T09:46:53.164Z,8.74
2023-01-03T09:48:58.307Z,8.76
2023-01-03T09:51:19.704Z,8.78
2023-01-03T09:53:57.503Z,8.77
2023-01-03T09:56:21.162Z,8.77
2023-01-03T09:58:43.301Z,8.79
2023-01-03T10:01:09.906Z,8.81
2023-01-03T10:03:48.063Z,8.82
2023-01-03T10:06:12.968Z,8.83
2023-01-03T10:08:34.924Z,8.83
2023-01-03T10:10:48.524Z,8.83
2023-01-03T10:13:08.159Z,8.85
2023-01-03T10:15:22.450Z,8.88
2023-01-03T10:17:35.275Z,8.94
2023-01-03T10:19:58.599Z,9.00
2023-01-03T10:22:11.155Z,9.08
2023-01-03T10:24:24.240Z,9.13
2023-01-03T10:26:36.442Z,9.17
2023-01-03T10:28:45.081Z,9.19
2023-01-03T10:31:07.710Z,9.23
2023-01-03T10:33:30.021Z,9.26
2023-01-03T10:35:36.755Z,9.27
2023-01-03T10:37:43.603Z,9.30
2023-01-03T10:39:49.760Z,9.28
2023-01-03T10:41:59.019Z,9.28
2023-01-03T10:44:05.451Z,9.27
2023-01-03T10:46:18.662Z,9.26
2023-01-03T10:48:24.346Z,9.26
2023-01-03T10:50:31.944Z,9.30
2023-01-03T10:52:40.287Z,9.31
2023-01-03T10:54:53.414Z,9.34
2023-01-03T10:56:58.940Z,9.36
2023-01-03T10:59:22.931Z,9.39
2023-01-03T11:01:27.270Z,9.44
2023-01-03T11:03:31.990Z,9.48
2023-01-03T11:05:36.779Z,9.51
2023-01-03T11:07:45.576Z,9.54
2023-01-03T11:09:53.461Z,9.58
2023-01-03T11:12:06.486Z,9.63
2023-01-03T11:14:23.392Z,9.69
2023-01-03T11:16:33.906Z,9.74
2023-01-03T11:18:37.972Z,9.79
2023-01-03T11:20:47.000Z,9.83
2023-01-03T11:22:58.513Z,9.88
2023-01-03T11:25:17.365Z,9.92
2023-01-03T11:27:33.761Z,9.96
2023-01-03T11:30:04.406Z,9.99
2023-01-03T11:32:23.462Z,10.01
2023-01-03T11:35:21.404Z,10.02
2023-01-03T11:37:21.397Z,10.03
2023-01-03T11:39:59.948Z,10.00
2023-01-03T11:42:30.304Z,10.01
2023-01-03T11:45:12.807Z,10.00
2023-01-03T11:47:29.100Z,10.02
2023-01-03T11:49:51.940Z,10.05
2023-01-03T11:52:21.261Z,10.07
2023-01-03T11:54:53.416Z,10.12
2023-01-03T11:57:05.572Z,10.16
2023-01-03T11:59:35.439Z,10.21
2023-01-03T12:02:07.397Z,10.25
2023-01-03T12:04:28.866Z,10.30
2023-01-03T12:06:39.743Z,10.33
2023-01-03T12:08:55.707Z,10.39
2023-01-03T12:11:06.734Z,10.43
2023-01-03T12:13:26.961Z,10.48
2023-01-03T12:15:45.326Z,10.57
2023-01-03T12:17:55.074Z,10.62
2023-01-03T12:20:03.011Z,10.69
2023-01-03T12:22:14.957Z,10.74
2023-01-03T12:24:28.278Z,10.80
2023-01-03T12:26:37.670Z,10.84
2023-01-03T12:28:49.622Z,10.92
2023-01-03T12:31:00.610Z,11.00
2023-01-03T12:33:15.801Z,11.08
2023-01-03T12:35:31.340Z,11.13
2023-01-03T12:37:40.895Z,11.17
2023-01-03T12:39:55.538Z,11.17
2023-01-03T12:42:03.280Z,11.20
2023-01-03T12:44:17.076Z,11.20
2023-01-03T12:46:31.523Z,11.21
2023-01-03T12:48:48.798Z,11.20
2023-01-03T12:50:55.088Z,11.18
2023-01-03T12:53:06.594Z,11.18
2023-01-03T12:55:21.031Z,11.17
2023-01-03T12:57:59.878Z,11.17
2023-01-03T13:00:26.882Z,11.17
2023-01-03T13:02:43.801Z,11.15
2023-01-03T13:04:52.792Z,11.16
2023-01-03T13:07:04.985Z,11.19
2023-01-03T13:09:21.935Z,11.19
2023-01-03T13:11:30.336Z,11.21
2023-01-03T13:13:36.410Z,11.25
2023-01-03T13:15:40.424Z,11.33
2023-01-03T13:17:47.785Z,11.34
2023-01-03T13:20:23.695Z,11.39
2023-01-03T13:22:50.921Z,11.39
2023-01-03T13:24:54.997Z,11.41
2023-01-03T13:27:34.269Z,11.42
2023-01-03T13:29:46.364Z,11.42
2023-01-03T13:32:15.466Z,11.42
2023-01-03T13:34:37.136Z,11.41
2023-01-03T13:37:12.212Z,11.41
2023-01-03T13:39:38.461Z,11.40
2023-01-03T13:41:42.545Z,11.39
2023-01-03T13:43:49.970Z,11.39
2023-01-03T13:46:00.072Z,11.38
2023-01-03T13:48:19.052Z,11.39
2023-01-03T13:50:29.724Z,11.39
2023-01-03T13:52:38.090Z,11.38
2023-01-03T13:55:05.340Z,11.37
2023-01-03T13:57:31.483Z,11.33
2023-01-03T13:59:42.816Z,11.34
2023-01-03T14:01:57.601Z,11.35
2023-01-03T14:04:39.670Z,11.37
2023-01-03T14:07:18.595Z,11.35
2023-01-03T14:09:50.253Z,11.38
2023-01-03T14:12:19.307Z,11.37
2023-01-03T14:14:27.334Z,11.36
2023-01-03T14:16:44.609Z,11.35
2023-01-03T14:18:53.097Z,11.35
2023-01-03T14:20:59.710Z,11.35
2023-01-03T14:23:31.887Z,11.35
2023-01-03T14:25:35.244Z,11.37
2023-01-03T14:27:40.972Z,11.38
2023-01-03T14:29:50.688Z,11.39
2023-01-03T14:31:56.586Z,11.40
2023-01-03T14:34:03.154Z,11.40
2023-01-03T14:36:09.170Z,11.41
2023-01-03T14:38:28.524Z,11.41
2023-01-03T14:40:32.332Z,11.44
2023-01-03T14:42:36.126Z,11.45
2023-01-03T14:44:39.580Z,11.48
2023-01-03T14:46:51.552Z,11.49
2023-01-03T14:49:02.925Z,11.52
2023-01-03T14:51:07.682Z,11.54
2023-01-03T14:53:13.111Z,11.54
2023-01-03T14:55:20.157Z,11.55
2023-01-03T14:57:26.663Z,11.56
2023-01-03T14:59:31.160Z,11.56
2023-01-03T15:01:35.292Z,11.57
2023-01-03T15:03:42.737Z,11.59
2023-01-03T15:05:46.273Z,11.61
2023-01-03T15:07:50.089Z,11.60
2023-01-03T15:10:04.076Z,11.62
2023-01-03T15:12:09.492Z,11.63
2023-01-03T15:14:14.637Z,11.63
2023-01-03T15:16:24.531Z,11.61
2023-01-03T15:18:31.968Z,11.60
2023-01-03T15:20:38.295Z,11.58
2023-01-03T15:22:42.558Z,11.56
2023-01-03T15:24:48.237Z,11.56
2023-01-03T15:26:53.278Z,11.56
2023-01-03T15:29:08.832Z,11.56
2023-01-03T15:31:26.896Z,11.54
2023-01-03T15:33:33.748Z,11.54
2023-01-03T15:35:39.813Z,11.51
2023-01-03T15:37:43.347Z,11.51
2023-01-03T15:39:50.079Z,11.51
2023-01-03T15:44:42.713Z,11.50
2023-01-03T15:46:49.960Z,11.48
2023-01-03T15:48:57.072Z,11.48
2023-01-03T15:51:00.670Z,11.46
2023-01-03T15:53:04.314Z,11.46
2023-01-03T15:55:08.856Z,11.45
2023-01-03T15:57:16.546Z,11.46
2023-01-03T15:59:25.372Z,11.49
2023-01-03T16:01:32.015Z,11.49
2023-01-03T16:03:36.438Z,11.51
2023-01-03T16:05:40.204Z,11.53
2023-01-03T16:07:44.431Z,11.55
2023-01-03T16:09:48.611Z,11.57
2023-01-03T16:11:58.719Z,11.60
2023-01-03T16:14:05.113Z,11.60
2023-01-03T16:16:10.406Z,11.61
2023-01-03T16:18:17.848Z,11.62
2023-01-03T16:20:21.776Z,11.62
2023-01-03T16:22:35.387Z,11.61
2023-01-03T16:24:39.761Z,11.59
2023-01-03T16:26:43.722Z,11.60
2023-01-03T16:28:47.746Z,11.58
2023-01-03T16:31:01.840Z,11.56
2023-01-03T16:33:05.815Z,11.58
2023-01-03T16:35:17.357Z,11.55
2023-01-03T16:37:20.934Z,11.59
2023-01-03T16:39:27.401Z,11.64
2023-01-03T16:41:31.119Z,11.69
2023-01-03T16:43:35.390Z,11.71
2023-01-03T16:45:47.175Z,11.71
2023-01-03T16:47:53.483Z,11.71
2023-01-03T16:50:01.032Z,11.71
2023-01-03T16:52:07.691Z,11.69
2023-01-03T16:54:11.794Z,11.71
2023-01-03T16:56:15.871Z,11.71
2023-01-03T16:58:20.913Z,11.71
2023-01-03T17:00:27.743Z,11.69
2023-01-03T17:02:31.690Z,11.68
2023-01-03T17:04:35.667Z,11.69
2023-01-03T17:06:41.547Z,11.69
2023-01-03T17:08:46.625Z,11.70
2023-01-03T17:10:53.933Z,11.72
2023-01-03T17:12:59.616Z,11.72
2023-01-03T17:15:03.529Z,11.73
2023-01-03T17:17:11.211Z,11.73
2023-01-03T17:20:01.613Z,11.70
2023-01-03T17:21:50.998Z,11.68
2023-01-03T17:24:00.079Z,11.65
2023-01-03T17:26:03.820Z,11.61
2023-01-03T17:28:09.425Z,11.61
2023-01-03T17:30:21.367Z,11.57
2023-01-03T17:32:25.061Z,11.55
2023-01-03T17:34:31.830Z,11.54
2023-01-03T17:36:36.035Z,11.51
2023-01-03T17:38:39.649Z,11.50
2023-01-03T17:40:47.484Z,11.48
2023-01-03T17:42:53.925Z,11.47
2023-01-03T17:45:15.067Z,11.47
2023-01-03T17:47:41.033Z,11.49
2023-01-03T17:49:44.672Z,11.46
2023-01-03T17:51:48.396Z,11.48
2023-01-03T17:53:52.947Z,11.48
2023-01-03T17:55:58.382Z,11.49
2023-01-03T17:58:03.642Z,11.47
2023-01-03T18:00:18.573Z,11.48
2023-01-03T18:02:24.679Z,11.50
2023-01-03T18:04:50.156Z,11.51
2023-01-03T18:06:57.225Z,11.55
2023-01-03T18:09:04.408Z,11.57
2023-01-03T18:11:15.801Z,11.60
2023-01-03T18:13:24.951Z,11.62
2023-01-03T18:15:30.049Z,11.62
2023-01-03T18:17:36.153Z,11.62
2023-01-03T18:19:40.398Z,11.62
2023-01-03T18:21:44.862Z,11.63
2023-01-03T18:23:53.787Z,11.63
2023-01-03T18:26:00.458Z,11.64
2023-01-03T18:28:07.153Z,11.64
2023-01-03T18:30:17.291Z,11.65
2023-01-03T18:32:28.372Z,11.68
2023-01-03T18:34:33.090Z,11.68
2023-01-03T18:36:43.047Z,11.69
2023-01-03T18:38:47.974Z,11.70
2023-01-03T18:40:54.169Z,11.68
2023-01-03T18:43:31.526Z,11.70
2023-01-03T18:45:36.322Z,11.68
2023-01-03T18:47:43.995Z,11.68
2023-01-03T18:49:49.097Z,11.68
2023-01-03T18:51:55.759Z,11.68
2023-01-03T18:54:01.537Z,11.67
2023-01-03T18:56:06.512Z,11.66
2023-01-03T18:58:22.068Z,11.65
2023-01-03T19:00:27.473Z,11.62
2023-01-03T19:02:32.499Z,11.60
2023-01-03T19:04:37.235Z,11.57
2023-01-03T19:06:45.539Z,11.55
2023-01-03T19:08:50.575Z,11.55
2023-01-03T19:10:55.494Z,11.54
2023-01-03T19:13:00.828Z,11.52
2023-01-03T19:15:13.422Z,11.51
2023-01-03T19:17:19.726Z,11.49
2023-01-03T19:19:24.355Z,11.49
2023-01-03T19:21:34.949Z,11.52
2023-01-03T19:23:41.388Z,11.51
2023-01-03T19:25:46.123Z,11.53
2023-01-03T19:27:53.447Z,11.54
2023-01-03T19:29:57.981Z,11.56
2023-01-03T19:32:05.828Z,11.56
2023-01-03T19:34:28.348Z,11.59
2023-01-03T19:36:33.588Z,11.62
2023-01-03T19:38:38.249Z,11.66
2023-01-03T19:40:45.686Z,11.68
2023-01-03T19:42:53.658Z,11.68
2023-01-03T19:44:59.877Z,11.68
2023-01-03T19:47:07.784Z,11.72
2023-01-03T19:49:18.916Z,11.73
2023-01-03T19:51:23.931Z,11.72
2023-01-03T19:53:28.406Z,11.73
2023-01-03T19:55:34.771Z,11.74
2023-01-03T19:57:41.974Z,11.74
2023-01-03T19:59:52.736Z,11.74
2023-01-03T20:02:24.163Z,11.74
2023-01-03T20:04:26.053Z,11.72
2023-01-03T20:06:31.007Z,11.71
2023-01-03T20:08:35.805Z,11.72
2023-01-03T20:10:42.565Z,11.72
2023-01-03T20:12:48.004Z,11.70
2023-01-03T20:14:53.457Z,11.71
2023-01-03T20:16:58.299Z,11.72
2023-01-03T20:19:02.703Z,11.74
2023-01-03T20:21:19.810Z,11.74
2023-01-03T20:23:29.979Z,11.73
2023-01-03T20:25:35.327Z,11.74
2023-01-03T20:27:44.490Z,11.74
2023-01-03T20:29:49.203Z,11.76
2023-01-03T20:31:54.176Z,11.74
2023-01-03T20:34:00.141Z,11.74
2023-01-03T20:36:20.033Z,11.73
2023-01-03T20:38:27.878Z,11.72
2023-01-03T20:40:33.029Z,11.70
2023-01-03T20:42:37.679Z,11.67
2023-01-03T20:44:41.828Z,11.71
2023-01-03T20:46:46.306Z,11.72
2023-01-03T20:48:57.315Z,11.73
2023-01-03T20:51:01.585Z,11.73
2023-01-03T20:53:08.235Z,11.75
2023-01-03T20:55:15.197Z,11.76
2023-01-03T20:57:21.561Z,11.78
2023-01-03T20:59:26.581Z,11.79
2023-01-03T21:01:31.355Z,11.80
2023-01-03T21:03:37.181Z,11.78
2023-01-03T21:05:45.519Z,11.75
2023-01-03T21:08:07.789Z,11.73
2023-01-03T21:10:24.635Z,11.72
2023-01-03T21:12:37.062Z,11.70
2023-01-03T21:14:49.688Z,11.73
2023-01-03T21:16:58.841Z,11.74
2023-01-03T21:19:07.197Z,11.74
2023-01-03T21:21:19.649Z,11.75
2023-01-03T21:23:26.498Z,11.74
2023-01-03T21:25:34.954Z,11.74
2023-01-03T21:27:39.888Z,11.75
2023-01-03T21:29:46.544Z,11.72
2023-01-03T21:31:51.417Z,11.74
2023-01-03T21:33:58.170Z,11.74
2023-01-03T21:36:02.599Z,11.75
2023-01-03T21:38:07.109Z,11.73
2023-01-03T21:40:18.888Z,11.75
2023-01-03T21:42:42.737Z,11.74
2023-01-03T21:44:47.459Z,11.74
2023-01-03T21:46:51.620Z,11.72
2023-01-03T21:48:56.412Z,11.71
2023-01-03T21:51:01.237Z,11.68
2023-01-03T21:53:08.991Z,11.65
2023-01-03T21:55:14.389Z,11.63
2023-01-03T21:57:23.348Z,11.62
2023-01-03T21:59:29.287Z,11.59
2023-01-03T22:01:53.673Z,11.60
2023-01-03T22:04:15.596Z,11.58
2023-01-03T22:06:19.878Z,11.58
2023-01-03T22:08:24.038Z,11.62
2023-01-03T22:10:28.341Z,11.60
2023-01-03T22:12:33.875Z,11.61
2023-01-03T22:14:41.399Z,11.62
2023-01-03T22:16:45.755Z,11.62
2023-01-03T22:18:50.359Z,11.62
2023-01-03T22:20:54.416Z,11.63
2023-01-03T22:23:02.770Z,11.63
2023-01-03T22:25:10.552Z,11.66
2023-01-03T22:27:17.120Z,11.65
2023-01-03T22:29:23.527Z,11.63
2023-01-03T22:31:32.430Z,11.59
2023-01-03T22:33:37.728Z,11.57
2023-01-03T22:35:42.247Z,11.57
2023-01-03T22:37:46.629Z,11.56
2023-01-03T22:39:50.568Z,11.56
2023-01-03T22:41:55.173Z,11.55
2023-01-03T22:43:59.847Z,11.55
2023-01-03T22:46:07.882Z,11.56
2023-01-03T22:48:14.200Z,11.55
2023-01-03T22:50:18.359Z,11.55
2023-01-03T22:52:22.507Z,11.55
2023-01-03T22:54:26.336Z,11.56
2023-01-03T22:56:30.069Z,11.57
2023-01-03T22:58:33.826Z,11.59
2023-01-03T23:00:37.546Z,11.59
2023-01-03T23:02:42.407Z,11.60
2023-01-03T23:04:47.883Z,11.66
2023-01-03T23:06:51.997Z,11.72
2023-01-03T23:08:55.930Z,11.77
2023-01-03T23:11:20.444Z,11.80
2023-01-03T23:13:24.456Z,11.81
2023-01-03T23:15:33.110Z,11.83
2023-01-03T23:17:54.595Z,11.81
2023-01-03T23:20:00.573Z,11.78
2023-01-03T23:22:04.482Z,11.77
2023-01-03T23:24:13.656Z,11.77
2023-01-03T23:26:17.655Z,11.75
2023-01-03T23:28:21.794Z,11.74
2023-01-03T23:30:26.130Z,11.70
2023-01-03T23:32:30.338Z,11.71
2023-01-03T23:34:34.163Z,11.69
2023-01-03T23:36:39.864Z,11.67
2023-01-03T23:38:44.794Z,11.66
2023-01-03T23:40:49.165Z,11.65
2023-01-03T23:42:53.635Z,11.64
2023-01-03T23:44:58.179Z,11.63
2023-01-03T23:47:07.663Z,11.64
2023-01-03T23:49:16.419Z,11.63
2023-01-03T23:51:22.841Z,11.61
2023-01-03T23:53:32.428Z,11.58
2023-01-03T23:55:40.390Z,11.57
2023-01-03T23:57:45.348Z,11.54
2023-01-03T23:59:50.124Z,11.54
